Buea, Cameroon
Current Conditions -  °F | °C
As of 5:00 PM on Sunday 21 Dec 2014 (Local Time) from FKKD Reporting Station
Few Clouds Few Clouds  
Wind Chill: 86°   Ceiling: Unl
Heat Index: 97°   Visibility: 4mi
Dew Point: 77°   Wind: 9mph
Humidity: 74%   Direction: 240°WSW
Pressure: 29.8"   Gusts: NA
Location:  4.16°N, 9.23°E
Report Text: FKKD 211600Z 24008KT 6000 FEW016 FEW020CB 30/25 Q1009 NOSIG
Loading
Personal Weather Stations






























Interactive Weather Map New forecast layout! Learn more

10-Day Weather Forecast

Advertisements
Track Severe Weather on mobile